Time;durP1;ratioP1;P1;durP2;ratioP2;P2;SDS_P1;SDS_P2;PMS_P1;PMS_P2;Temp;Humidity;BMP_temperature;BMP_pressure;BME280_temperature;BME280_humidity;BME280_pressure;Samples;Min_cycle;Max_cycle;Signal;HPM_P1;HPM_P2
2022/08/09 00:00:03;;;;;;;7.38;3.85;;;;;;;;;;5015257;28;99342;-72
2022/08/09 00:02:38;;;;;;;4.35;3.97;;;;;;;;;;5017057;28;98678;-72
2022/08/09 00:05:14;;;;;;;8.98;4.10;;;;;;;;;;5014733;28;99215;-72
2022/08/09 00:08:01;;;;;;;4.90;4.00;;;;;;;;;;5011806;28;98447;-73
2022/08/09 00:10:27;;;;;;;4.40;4.00;;;;;;;;;;4994146;28;99012;-72
2022/08/09 00:12:53;;;;;;;7.07;4.15;;;;;;;;;;4988213;28;99788;-72
2022/08/09 00:15:20;;;;;;;5.68;4.10;;;;;;;;;;4972417;28;99562;-72
2022/08/09 00:18:07;;;;;;;5.47;4.43;;;;;;;;;;4973615;28;98576;-72
2022/08/09 00:20:38;;;;;;;9.05;4.28;;;;;;;;;;4988875;28;99578;-71
2022/08/09 00:23:14;;;;;;;9.35;4.50;;;;;;;;;;4992261;28;98160;-72
2022/08/09 00:26:00;;;;;;;6.65;4.05;;;;;;;;;;4999318;28;99135;-72
2022/08/09 00:28:30;;;;;;;7.10;3.97;;;;;;;;;;5014906;28;100655;-72
2022/08/09 00:30:59;;;;;;;5.43;4.50;;;;;;;;;;5011689;28;100323;-72
2022/08/09 00:33:34;;;;;;;4.75;4.28;;;;;;;;;;5012286;28;99336;-72
2022/08/09 00:36:17;;;;;;;10.10;5.10;;;;;;;;;;5012214;28;99031;-72
2022/08/09 00:38:43;;;;;;;7.50;5.00;;;;;;;;;;5012241;28;100207;-72
2022/08/09 00:41:12;;;;;;;5.28;4.35;;;;;;;;;;5012500;28;99282;-72
2022/08/09 00:43:58;;;;;;;11.23;4.70;;;;;;;;;;5010780;28;98635;-72
2022/08/09 00:46:44;;;;;;;5.07;4.03;;;;;;;;;;5012117;28;98990;-72
2022/08/09 00:49:27;;;;;;;9.10;4.38;;;;;;;;;;5011571;28;98703;-72
2022/08/09 00:51:56;;;;;;;6.50;4.30;;;;;;;;;;5015136;28;98491;-72
2022/08/09 00:54:27;;;;;;;6.38;4.65;;;;;;;;;;5011939;28;100016;-72
2022/08/09 00:57:00;;;;;;;4.82;4.38;;;;;;;;;;5011030;28;99219;-73
2022/08/09 00:59:27;;;;;;;14.18;4.88;;;;;;;;;;5009943;28;100720;-73
2022/08/09 01:02:15;;;;;;;5.65;4.93;;;;;;;;;;4991397;28;99309;-72
2022/08/09 01:05:06;;;;;;;8.88;5.35;;;;;;;;;;4991205;28;98592;-72
2022/08/09 01:07:48;;;;;;;11.07;5.55;;;;;;;;;;4990567;28;99009;-73
2022/08/09 01:10:33;;;;;;;5.95;5.22;;;;;;;;;;4989897;28;99507;-73
2022/08/09 01:13:04;;;;;;;9.65;5.93;;;;;;;;;;4991733;28;98503;-73
2022/08/09 01:15:36;;;;;;;13.18;5.47;;;;;;;;;;4994744;28;98911;-72
2022/08/09 01:18:19;;;;;;;8.60;5.53;;;;;;;;;;5008363;28;98520;-73
2022/08/09 01:21:14;;;;;;;9.57;5.78;;;;;;;;;;5011228;28;99937;-73
2022/08/09 01:23:45;;;;;;;7.20;6.40;;;;;;;;;;4993488;28;100136;-72
2022/08/09 01:26:32;;;;;;;13.02;6.32;;;;;;;;;;4991624;28;98904;-73
2022/08/09 01:29:02;;;;;;;10.80;5.88;;;;;;;;;;4991711;28;98472;-73
2022/08/09 01:31:29;;;;;;;12.10;6.43;;;;;;;;;;4990201;28;99265;-72
2022/08/09 01:34:18;;;;;;;11.73;6.60;;;;;;;;;;4992228;28;98723;-72
2022/08/09 01:36:46;;;;;;;7.13;5.68;;;;;;;;;;4991128;28;98890;-73
2022/08/09 01:39:15;;;;;;;6.10;5.53;;;;;;;;;;4994041;28;99300;-73
2022/08/09 01:41:42;;;;;;;8.23;6.65;;;;;;;;;;4991770;28;99086;-73
2022/08/09 01:44:22;;;;;;;9.02;6.28;;;;;;;;;;4991529;28;99107;-72
2022/08/09 01:46:49;;;;;;;6.63;6.03;;;;;;;;;;4990739;28;98512;-72
2022/08/09 01:49:19;;;;;;;6.50;6.00;;;;;;;;;;4991725;28;99208;-72
2022/08/09 01:51:53;;;;;;;7.50;6.28;;;;;;;;;;4991182;28;99203;-73
2022/08/09 01:54:22;;;;;;;12.10;6.47;;;;;;;;;;4990471;28;98539;-73
2022/08/09 01:56:50;;;;;;;7.97;6.15;;;;;;;;;;4991184;28;98476;-72
2022/08/09 01:59:18;;;;;;;8.15;6.55;;;;;;;;;;4990942;28;99710;-72
2022/08/09 02:01:47;;;;;;;12.88;7.32;;;;;;;;;;4993897;28;98795;-73
2022/08/09 02:04:27;;;;;;;9.63;6.80;;;;;;;;;;4991426;28;100262;-73
2022/08/09 02:07:07;;;;;;;10.30;7.22;;;;;;;;;;4990887;28;97904;-72
2022/08/09 02:09:53;;;;;;;9.30;8.40;;;;;;;;;;4971997;28;99061;-72
2022/08/09 02:12:27;;;;;;;14.95;7.40;;;;;;;;;;4971221;28;99657;-73
2022/08/09 02:14:56;;;;;;;8.40;6.72;;;;;;;;;;4970088;28;99313;-72
2022/08/09 02:17:25;;;;;;;8.48;7.20;;;;;;;;;;4971352;28;99681;-72
2022/08/09 02:20:11;;;;;;;9.00;7.85;;;;;;;;;;4971255;28;100173;-73
2022/08/09 02:22:51;;;;;;;18.48;7.55;;;;;;;;;;4983702;28;98489;-72
2022/08/09 02:25:20;;;;;;;12.55;8.00;;;;;;;;;;4992637;28;99563;-72
2022/08/09 02:27:58;;;;;;;9.25;7.00;;;;;;;;;;4996198;28;98511;-72
2022/08/09 02:30:39;;;;;;;7.88;6.97;;;;;;;;;;4997514;28;99932;-73
2022/08/09 02:33:08;;;;;;;9.57;8.10;;;;;;;;;;4998231;28;98591;-73
2022/08/09 02:35:40;;;;;;;10.55;6.95;;;;;;;;;;4997788;28;98810;-72
2022/08/09 02:38:29;;;;;;;9.27;7.57;;;;;;;;;;4995092;28;99448;-73
2022/08/09 02:41:05;;;;;;;12.43;7.88;;;;;;;;;;4993327;28;100279;-72
2022/08/09 02:43:33;;;;;;;7.97;7.20;;;;;;;;;;4994021;28;98534;-73
2022/08/09 02:46:23;;;;;;;14.32;7.28;;;;;;;;;;4997453;28;100057;-72
2022/08/09 02:48:50;;;;;;;9.80;7.97;;;;;;;;;;4993434;28;98500;-73
2022/08/09 02:51:19;;;;;;;9.02;7.25;;;;;;;;;;4994744;28;99537;-72
2022/08/09 02:53:48;;;;;;;9.52;7.35;;;;;;;;;;4992935;28;99676;-72
2022/08/09 02:56:27;;;;;;;9.18;7.75;;;;;;;;;;4993023;28;98984;-72
2022/08/09 02:58:54;;;;;;;11.95;7.53;;;;;;;;;;4993626;28;99295;-72
2022/08/09 03:01:21;;;;;;;13.57;7.28;;;;;;;;;;4993193;28;99484;-72
2022/08/09 03:04:08;;;;;;;9.43;7.25;;;;;;;;;;4993041;28;98743;-72
2022/08/09 03:06:45;;;;;;;10.48;7.28;;;;;;;;;;4993060;28;100015;-72
2022/08/09 03:09:15;;;;;;;8.45;7.18;;;;;;;;;;4997060;28;98912;-72
2022/08/09 03:11:42;;;;;;;11.48;8.02;;;;;;;;;;4993333;28;98582;-72
2022/08/09 03:14:30;;;;;;;7.65;6.88;;;;;;;;;;4993287;28;98855;-73
2022/08/09 03:16:58;;;;;;;12.43;8.27;;;;;;;;;;5006928;28;98576;-73
2022/08/09 03:19:28;;;;;;;7.50;6.80;;;;;;;;;;5013193;28;99100;-73
2022/08/09 03:22:15;;;;;;;14.70;8.00;;;;;;;;;;5007818;28;100531;-72
2022/08/09 03:24:56;;;;;;;12.48;7.20;;;;;;;;;;4993499;28;97832;-73
2022/08/09 03:27:43;;;;;;;11.00;7.38;;;;;;;;;;4993121;28;98357;-73
2022/08/09 03:30:11;;;;;;;12.85;7.90;;;;;;;;;;4993493;28;98571;-72
2022/08/09 03:32:40;;;;;;;11.20;7.50;;;;;;;;;;4996354;28;99664;-72
2022/08/09 03:35:11;;;;;;;10.13;7.75;;;;;;;;;;4993577;28;100146;-72
2022/08/09 03:37:57;;;;;;;11.50;7.63;;;;;;;;;;4993811;28;98560;-72
2022/08/09 03:40:25;;;;;;;11.77;8.65;;;;;;;;;;4992895;28;99311;-73
2022/08/09 03:42:56;;;;;;;15.63;8.45;;;;;;;;;;4993377;28;99291;-73
2022/08/09 03:45:22;;;;;;;8.70;8.07;;;;;;;;;;4992749;28;98517;-72
2022/08/09 03:48:09;;;;;;;9.25;8.23;;;;;;;;;;4993254;28;100273;-72
2022/08/09 03:50:36;;;;;;;14.35;9.10;;;;;;;;;;4994325;28;98116;-72
2022/08/09 03:53:08;;;;;;;12.02;8.85;;;;;;;;;;4991872;28;98703;-72
2022/08/09 03:55:36;;;;;;;11.10;8.32;;;;;;;;;;4995913;28;100205;-73
2022/08/09 03:58:07;;;;;;;13.90;9.03;;;;;;;;;;4993732;27;99401;-73
2022/08/09 04:00:43;;;;;;;10.07;9.05;;;;;;;;;;4991357;28;99680;-72
2022/08/09 04:03:10;;;;;;;11.13;8.85;;;;;;;;;;4992226;28;99238;-72
2022/08/09 04:05:45;;;;;;;11.60;8.73;;;;;;;;;;4991973;28;98536;-72
2022/08/09 04:08:11;;;;;;;14.05;8.75;;;;;;;;;;5008024;28;99286;-72
2022/08/09 04:10:38;;;;;;;12.43;9.23;;;;;;;;;;5012450;28;99171;-72
2022/08/09 04:13:08;;;;;;;10.18;9.25;;;;;;;;;;5013267;28;98524;-72
2022/08/09 04:15:37;;;;;;;10.63;8.50;;;;;;;;;;4985555;28;99936;-72
2022/08/09 04:18:24;;;;;;;11.23;8.82;;;;;;;;;;4976649;28;99420;-72
2022/08/09 04:20:50;;;;;;;14.20;8.43;;;;;;;;;;4972513;28;99357;-72
2022/08/09 04:23:17;;;;;;;9.45;8.55;;;;;;;;;;4985878;28;100316;-73
2022/08/09 04:25:50;;;;;;;10.15;9.10;;;;;;;;;;4992170;28;98732;-72
2022/08/09 04:28:21;;;;;;;11.23;8.55;;;;;;;;;;4991667;28;99080;-72
2022/08/09 04:31:05;;;;;;;10.25;8.63;;;;;;;;;;4992403;28;99356;-72
2022/08/09 04:33:38;;;;;;;14.55;9.05;;;;;;;;;;4992746;28;98609;-72
2022/08/09 04:36:24;;;;;;;9.85;8.48;;;;;;;;;;4992376;28;100047;-72
2022/08/09 04:38:51;;;;;;;11.63;8.95;;;;;;;;;;4995345;28;99765;-72
2022/08/09 04:41:17;;;;;;;14.63;9.15;;;;;;;;;;4994135;28;99079;-73
2022/08/09 04:43:49;;;;;;;10.73;9.43;;;;;;;;;;4993506;27;99304;-72
2022/08/09 04:46:35;;;;;;;10.70;9.30;;;;;;;;;;4986618;28;98609;-72
2022/08/09 04:49:21;;;;;;;9.95;8.95;;;;;;;;;;4971397;28;99279;-72
2022/08/09 04:52:07;;;;;;;10.23;9.23;;;;;;;;;;4972188;28;99319;-72
2022/08/09 04:54:35;;;;;;;12.35;9.32;;;;;;;;;;4973014;28;99287;-72
2022/08/09 04:57:01;;;;;;;14.50;9.73;;;;;;;;;;4972909;28;99116;-72
2022/08/09 04:59:29;;;;;;;17.48;9.95;;;;;;;;;;4993907;28;100184;-72
2022/08/09 05:01:55;;;;;;;11.52;9.95;;;;;;;;;;5000521;28;98434;-72
2022/08/09 05:04:22;;;;;;;13.05;9.05;;;;;;;;;;4994606;28;100213;-73
2022/08/09 05:06:56;;;;;;;13.82;9.65;;;;;;;;;;4997846;28;98201;-71
2022/08/09 05:09:23;;;;;;;11.27;9.25;;;;;;;;;;4992425;28;98488;-72
2022/08/09 05:11:57;;;;;;;11.80;8.90;;;;;;;;;;4991806;28;100293;-72
2022/08/09 05:14:24;;;;;;;10.38;9.27;;;;;;;;;;4991676;28;99246;-72
2022/08/09 05:16:52;;;;;;;15.88;9.63;;;;;;;;;;4991027;28;99852;-72
2022/08/09 05:19:26;;;;;;;17.80;9.68;;;;;;;;;;4992062;28;99460;-72
2022/08/09 05:22:12;;;;;;;14.77;10.00;;;;;;;;;;4992061;28;99008;-72
2022/08/09 05:24:59;;;;;;;10.63;8.60;;;;;;;;;;4993595;28;99178;-72
2022/08/09 05:27:27;;;;;;;10.32;8.20;;;;;;;;;;4991022;28;98488;-72
2022/08/09 05:29:57;;;;;;;11.75;8.75;;;;;;;;;;4991749;28;98946;-72
2022/08/09 05:32:24;;;;;;;17.38;9.48;;;;;;;;;;5001107;28;98721;-72
2022/08/09 05:34:50;;;;;;;11.50;9.27;;;;;;;;;;5011224;28;99324;-72
2022/08/09 05:37:17;;;;;;;16.17;9.65;;;;;;;;;;5011593;28;99182;-72
2022/08/09 05:39:43;;;;;;;11.95;8.77;;;;;;;;;;5009809;28;100609;-72
2022/08/09 05:42:12;;;;;;;11.80;9.18;;;;;;;;;;5005675;28;98532;-70
2022/08/09 05:44:47;;;;;;;16.27;9.13;;;;;;;;;;4989993;28;99398;-72
2022/08/09 05:47:16;;;;;;;10.50;8.85;;;;;;;;;;4994031;28;99433;-71
2022/08/09 05:49:43;;;;;;;15.80;9.68;;;;;;;;;;4989890;28;99338;-71
2022/08/09 05:52:29;;;;;;;16.65;7.35;;;;;;;;;;4978117;28;99751;-71
2022/08/09 05:54:56;;;;;;;11.18;8.35;;;;;;;;;;4976307;28;98619;-73
2022/08/09 05:57:28;;;;;;;10.77;8.73;;;;;;;;;;4979451;28;99121;-72
2022/08/09 06:00:15;;;;;;;9.32;7.60;;;;;;;;;;4976301;28;99220;-72
2022/08/09 06:02:42;;;;;;;9.27;8.15;;;;;;;;;;4987305;28;98616;-72
2022/08/09 06:05:13;;;;;;;10.80;7.25;;;;;;;;;;4977930;28;100999;-72
2022/08/09 06:07:41;;;;;;;13.23;7.90;;;;;;;;;;4973777;28;99328;-72
2022/08/09 06:10:08;;;;;;;12.20;8.15;;;;;;;;;;4983072;28;100386;-73
2022/08/09 06:12:41;;;;;;;11.93;8.25;;;;;;;;;;4982296;28;99530;-73
2022/08/09 06:15:08;;;;;;;8.70;7.35;;;;;;;;;;4977539;28;99195;-73
2022/08/09 06:17:35;;;;;;;9.98;7.25;;;;;;;;;;4976573;28;99060;-73
2022/08/09 06:20:05;;;;;;;8.55;7.40;;;;;;;;;;4973967;28;100126;-73
2022/08/09 06:22:33;;;;;;;9.95;6.95;;;;;;;;;;4981909;28;99717;-73
2022/08/09 06:24:59;;;;;;;10.13;6.85;;;;;;;;;;4976118;28;100662;-73
2022/08/09 06:27:26;;;;;;;12.15;7.18;;;;;;;;;;4976098;28;99238;-73
2022/08/09 06:30:09;;;;;;;9.02;5.80;;;;;;;;;;4976009;28;100292;-73
2022/08/09 06:32:35;;;;;;;9.95;7.13;;;;;;;;;;4977427;28;100607;-73
2022/08/09 06:35:21;;;;;;;8.20;5.93;;;;;;;;;;4976591;27;100557;-73
2022/08/09 06:38:08;;;;;;;10.82;6.68;;;;;;;;;;4976675;28;98621;-73
2022/08/09 06:40:36;;;;;;;12.73;6.55;;;;;;;;;;4974781;28;100669;-73
2022/08/09 06:43:03;;;;;;;9.27;6.32;;;;;;;;;;4977211;28;98906;-73
2022/08/09 06:45:33;;;;;;;6.25;5.82;;;;;;;;;;4975163;28;101317;-73
2022/08/09 06:48:19;;;;;;;12.15;6.45;;;;;;;;;;4976099;28;99988;-73
2022/08/09 06:50:56;;;;;;;8.30;5.40;;;;;;;;;;4978573;28;100271;-73
2022/08/09 06:53:23;;;;;;;6.50;5.85;;;;;;;;;;4982223;28;100797;-73
2022/08/09 06:55:50;;;;;;;7.95;5.43;;;;;;;;;;4981799;28;100071;-73
2022/08/09 06:58:16;;;;;;;9.25;5.20;;;;;;;;;;4979578;28;99938;-73
2022/08/09 07:01:02;;;;;;;6.68;4.65;;;;;;;;;;4978548;28;100177;-73
2022/08/09 07:03:29;;;;;;;8.48;5.13;;;;;;;;;;4977467;28;99331;-73
2022/08/09 07:05:56;;;;;;;6.28;4.28;;;;;;;;;;4977437;28;100411;-73
2022/08/09 07:08:30;;;;;;;5.88;3.97;;;;;;;;;;4979018;28;100383;-73
2022/08/09 07:10:57;;;;;;;5.88;3.75;;;;;;;;;;4979895;28;98922;-73
2022/08/09 07:13:23;;;;;;;4.13;3.72;;;;;;;;;;4980371;28;99617;-73
2022/08/09 07:15:54;;;;;;;8.05;3.40;;;;;;;;;;4976971;28;99445;-74
2022/08/09 07:18:40;;;;;;;4.70;3.33;;;;;;;;;;4973735;28;99005;-74
2022/08/09 07:21:08;;;;;;;5.78;3.40;;;;;;;;;;4973149;28;100027;-72
2022/08/09 07:23:35;;;;;;;3.75;3.38;;;;;;;;;;4973307;28;100122;-73
2022/08/09 07:26:22;;;;;;;5.95;3.33;;;;;;;;;;4991200;28;99063;-73
2022/08/09 07:28:48;;;;;;;4.80;2.88;;;;;;;;;;4990020;28;99486;-73
2022/08/09 07:31:34;;;;;;;4.82;2.17;;;;;;;;;;4973371;28;99177;-73
2022/08/09 07:34:10;;;;;;;3.38;2.40;;;;;;;;;;4975763;28;100518;-73
2022/08/09 07:36:47;;;;;;;4.43;2.72;;;;;;;;;;4975986;28;99593;-73
2022/08/09 07:39:13;;;;;;;3.45;2.20;;;;;;;;;;4980361;28;99076;-73
2022/08/09 07:42:01;;;;;;;3.53;2.08;;;;;;;;;;4978690;28;102944;-72
2022/08/09 07:44:27;;;;;;;8.25;2.85;;;;;;;;;;4980721;28;102318;-72
2022/08/09 07:47:13;;;;;;;3.63;2.35;;;;;;;;;;4983067;28;100876;-72
2022/08/09 07:49:41;;;;;;;6.10;2.10;;;;;;;;;;4977755;28;99477;-72
2022/08/09 07:52:28;;;;;;;2.70;1.60;;;;;;;;;;4972745;28;98646;-72
2022/08/09 07:54:55;;;;;;;2.58;1.85;;;;;;;;;;4974676;28;99053;-73
2022/08/09 07:57:22;;;;;;;5.90;1.98;;;;;;;;;;4973712;28;99465;-73
2022/08/09 08:00:01;;;;;;;3.72;2.10;;;;;;;;;;4987594;28;98738;-73
2022/08/09 08:02:38;;;;;;;3.00;1.90;;;;;;;;;;4995076;28;98765;-73
2022/08/09 08:05:08;;;;;;;4.77;2.23;;;;;;;;;;4993521;28;97929;-73
2022/08/09 08:07:43;;;;;;;4.78;1.35;;;;;;;;;;4977647;28;99550;-73
2022/08/09 08:10:31;;;;;;;3.05;1.50;;;;;;;;;;4976099;28;99212;-73
2022/08/09 08:12:59;;;;;;;3.55;1.50;;;;;;;;;;4971265;28;99748;-73
2022/08/09 08:15:29;;;;;;;2.67;1.30;;;;;;;;;;4992023;28;101061;-73
2022/08/09 08:18:00;;;;;;;3.40;1.58;;;;;;;;;;4989528;28;99471;-73
2022/08/09 08:20:29;;;;;;;2.03;1.17;;;;;;;;;;4977604;28;98923;-77
2022/08/09 08:22:59;;;;;;;4.00;1.60;;;;;;;;;;4990252;28;99909;-73
2022/08/09 08:25:42;;;;;;;3.90;1.40;;;;;;;;;;4995776;28;100097;-73
2022/08/09 08:28:13;;;;;;;4.90;1.30;;;;;;;;;;4991945;28;100093;-72
2022/08/09 08:30:41;;;;;;;2.78;1.10;;;;;;;;;;4991246;28;99482;-72
2022/08/09 08:33:08;;;;;;;5.20;1.23;;;;;;;;;;4992360;28;98562;-72
2022/08/09 08:35:48;;;;;;;2.13;1.00;;;;;;;;;;4991570;28;99294;-72
2022/08/09 08:38:24;;;;;;;1.45;0.95;;;;;;;;;;4991278;28;100171;-72
2022/08/09 08:40:54;;;;;;;3.38;0.90;;;;;;;;;;4972816;28;98586;-72
2022/08/09 08:43:22;;;;;;;1.92;0.90;;;;;;;;;;4973144;28;99698;-73
2022/08/09 08:45:49;;;;;;;4.15;1.00;;;;;;;;;;4972443;28;99442;-72
2022/08/09 08:48:24;;;;;;;3.22;1.13;;;;;;;;;;4974900;28;98604;-73
2022/08/09 08:50:56;;;;;;;;;;;;;;;;;;4973125;28;99409;-73
2022/08/09 08:53:22;;;;;;;2.08;1.00;;;;;;;;;;4972117;28;116905;-72
2022/08/09 08:55:57;;;;;;;8.00;1.38;;;;;;;;;;4980512;28;97824;-72
2022/08/09 08:58:26;;;;;;;1.65;0.80;;;;;;;;;;4991995;28;100117;-72
2022/08/09 09:00:56;;;;;;;2.28;0.77;;;;;;;;;;4989705;28;101246;-73
2022/08/09 09:03:26;;;;;;;2.17;1.30;;;;;;;;;;4991300;28;99723;-73
2022/08/09 09:06:04;;;;;;;2.05;0.93;;;;;;;;;;4991737;28;99442;-73
2022/08/09 09:08:33;;;;;;;2.83;1.15;;;;;;;;;;4994806;28;98689;-73
2022/08/09 09:11:06;;;;;;;1.13;0.95;;;;;;;;;;4991782;28;99179;-73
2022/08/09 09:13:37;;;;;;;4.05;1.10;;;;;;;;;;4991630;28;98553;-73
2022/08/09 09:16:21;;;;;;;1.55;0.93;;;;;;;;;;4991972;28;98863;-75
2022/08/09 09:19:01;;;;;;;1.45;0.95;;;;;;;;;;4991502;28;99199;-73
2022/08/09 09:21:54;;;;;;;2.72;1.33;;;;;;;;;;4991554;28;97855;-73
2022/08/09 09:24:27;;;;;;;3.03;1.27;;;;;;;;;;4972315;28;98581;-73
2022/08/09 09:26:55;;;;;;;3.83;1.00;;;;;;;;;;4971352;28;98385;-73
2022/08/09 09:29:48;;;;;;;2.47;1.20;;;;;;;;;;4971739;28;99404;-73
2022/08/09 09:32:34;;;;;;;4.40;1.13;;;;;;;;;;4992188;28;100686;-73
2022/08/09 09:35:06;;;;;;;3.25;0.90;;;;;;;;;;4992060;28;98462;-72
2022/08/09 09:37:36;;;;;;;2.08;0.95;;;;;;;;;;4990223;28;99822;-73
2022/08/09 09:40:06;;;;;;;4.20;1.00;;;;;;;;;;4991688;28;100201;-73
2022/08/09 09:42:34;;;;;;;1.08;0.80;;;;;;;;;;4991977;28;98620;-73
2022/08/09 09:45:04;;;;;;;4.10;0.90;;;;;;;;;;5002230;28;98944;-74
2022/08/09 09:47:31;;;;;;;3.42;0.82;;;;;;;;;;5009835;28;98722;-73
2022/08/09 09:50:07;;;;;;;2.13;1.02;;;;;;;;;;4972115;28;98519;-73
2022/08/09 09:52:49;;;;;;;1.83;1.00;;;;;;;;;;4975867;28;98513;-74
2022/08/09 09:55:20;;;;;;;1.25;0.98;;;;;;;;;;4993680;28;100144;-74
2022/08/09 09:57:59;;;;;;;1.02;0.70;;;;;;;;;;4990080;28;99926;-73
2022/08/09 10:00:52;;;;;;;2.75;1.00;;;;;;;;;;4991944;28;99782;-73
2022/08/09 10:03:37;;;;;;;2.85;0.77;;;;;;;;;;5011954;28;98842;-72
2022/08/09 10:06:05;;;;;;;1.45;0.82;;;;;;;;;;5011968;28;100024;-72
2022/08/09 10:08:31;;;;;;;1.55;0.82;;;;;;;;;;5001751;28;99753;-73
2022/08/09 10:11:21;;;;;;;1.90;0.75;;;;;;;;;;4992891;28;98529;-74
2022/08/09 10:14:21;;;;;;;8.68;1.23;;;;;;;;;;4991408;28;99335;-72
2022/08/09 10:16:56;;;;;;;3.03;1.13;;;;;;;;;;4984772;28;99661;-73
2022/08/09 10:19:43;;;;;;;1.52;0.65;;;;;;;;;;4976721;28;98647;-73
2022/08/09 10:22:11;;;;;;;0.93;0.85;;;;;;;;;;4973520;28;100214;-72
2022/08/09 10:24:38;;;;;;;2.00;0.70;;;;;;;;;;4971282;28;98571;-73
2022/08/09 10:27:04;;;;;;;1.88;0.80;;;;;;;;;;4970772;28;100542;-72
2022/08/09 10:29:43;;;;;;;2.92;0.80;;;;;;;;;;4982089;28;99154;-72
2022/08/09 10:32:29;;;;;;;2.10;0.90;;;;;;;;;;4991835;28;98422;-72
2022/08/09 10:35:08;;;;;;;2.35;0.80;;;;;;;;;;4971654;28;99071;-74
2022/08/09 10:37:35;;;;;;;1.67;0.90;;;;;;;;;;4971719;28;100375;-73
2022/08/09 10:40:07;;;;;;;1.10;0.73;;;;;;;;;;4971276;28;98216;-73
2022/08/09 10:42:37;;;;;;;1.02;0.60;;;;;;;;;;4980998;28;99002;-72
2022/08/09 10:45:05;;;;;;;0.43;0.43;;;;;;;;;;4989191;28;99860;-73
2022/08/09 10:47:56;;;;;;;2.53;0.65;;;;;;;;;;4974137;28;99948;-73
2022/08/09 10:51:08;;;;;;;1.98;0.65;;;;;;;;;;4973742;28;99932;-74
2022/08/09 10:53:57;;;;;;;1.13;0.75;;;;;;;;;;4974716;28;98522;-73
2022/08/09 10:56:28;;;;;;;1.65;0.57;;;;;;;;;;4974069;28;99332;-73
2022/08/09 10:58:56;;;;;;;1.83;0.90;;;;;;;;;;4975352;28;99762;-74
2022/08/09 11:01:31;;;;;;;0.75;0.75;;;;;;;;;;4986484;28;98551;-73
2022/08/09 11:04:22;;;;;;;1.13;0.60;;;;;;;;;;4977087;28;100035;-73
2022/08/09 11:06:57;;;;;;;1.83;0.98;;;;;;;;;;4984005;28;98070;-73
2022/08/09 11:09:47;;;;;;;0.60;0.60;;;;;;;;;;4993347;28;98926;-72
2022/08/09 11:12:14;;;;;;;3.13;0.82;;;;;;;;;;4993119;28;99435;-72
2022/08/09 11:14:47;;;;;;;0.55;0.47;;;;;;;;;;4989599;28;99360;-72
2022/08/09 11:17:13;;;;;;;0.98;0.80;;;;;;;;;;4979382;28;100025;-72
2022/08/09 11:20:06;;;;;;;4.47;1.57;;;;;;;;;;4991856;28;99412;-72
2022/08/09 11:22:48;;;;;;;1.05;0.70;;;;;;;;;;4986662;28;99073;-72
2022/08/09 11:25:30;;;;;;;0.70;0.70;;;;;;;;;;4981000;28;99066;-72
2022/08/09 11:28:27;;;;;;;0.88;0.70;;;;;;;;;;4976509;28;99695;-73
2022/08/09 11:31:00;;;;;;;2.22;0.90;;;;;;;;;;4980330;28;99675;-72
2022/08/09 11:33:47;;;;;;;0.75;0.60;;;;;;;;;;4990701;28;99560;-73
2022/08/09 11:36:16;;;;;;;2.63;1.00;;;;;;;;;;4985042;28;98584;-73
2022/08/09 11:39:01;;;;;;;3.70;0.80;;;;;;;;;;4988213;28;99741;-74
2022/08/09 11:41:28;;;;;;;4.40;0.82;;;;;;;;;;4987943;28;99989;-73
2022/08/09 11:44:06;;;;;;;1.38;0.90;;;;;;;;;;4991080;28;98671;-75
2022/08/09 11:46:49;;;;;;;0.73;0.60;;;;;;;;;;4988539;28;100406;-74
2022/08/09 11:49:16;;;;;;;2.60;0.52;;;;;;;;;;4971961;28;100286;-74
2022/08/09 11:52:00;;;;;;;3.53;0.70;;;;;;;;;;4979859;28;101257;-74
2022/08/09 11:55:06;;;;;;;7.53;0.95;;;;;;;;;;4992775;28;99910;-74
2022/08/09 11:57:37;;;;;;;1.23;0.88;;;;;;;;;;4981549;28;98720;-74
2022/08/09 12:00:24;;;;;;;1.23;0.70;;;;;;;;;;4994520;28;100020;-74
2022/08/09 12:02:54;;;;;;;3.80;0.70;;;;;;;;;;4975507;28;99389;-73
2022/08/09 12:05:21;;;;;;;0.68;0.68;;;;;;;;;;4990890;28;98651;-74
2022/08/09 12:07:49;;;;;;;0.95;0.65;;;;;;;;;;4976878;28;99233;-73
2022/08/09 12:10:22;;;;;;;0.93;0.60;;;;;;;;;;4977197;28;101867;-73
2022/08/09 12:13:05;;;;;;;0.60;0.60;;;;;;;;;;4973128;28;98962;-74
2022/08/09 12:15:57;;;;;;;0.85;0.70;;;;;;;;;;4989778;28;100040;-74
2022/08/09 12:18:23;;;;;;;2.75;0.70;;;;;;;;;;5013141;28;98650;-74
2022/08/09 12:20:57;;;;;;;0.73;0.65;;;;;;;;;;5010455;28;99960;-74
2022/08/09 12:23:27;;;;;;;1.50;0.60;;;;;;;;;;5010358;28;99425;-74
2022/08/09 12:26:14;;;;;;;1.27;0.70;;;;;;;;;;5012082;28;97813;-73
2022/08/09 12:28:53;;;;;;;2.72;0.68;;;;;;;;;;4976580;28;98648;-74
2022/08/09 12:31:37;;;;;;;1.17;0.70;;;;;;;;;;4972932;28;99170;-74
2022/08/09 12:34:33;;;;;;;1.27;0.77;;;;;;;;;;4972185;28;99785;-73
2022/08/09 12:37:01;;;;;;;0.90;0.77;;;;;;;;;;4988229;28;101301;-74
2022/08/09 12:39:57;;;;;;;1.00;0.80;;;;;;;;;;4995425;28;99606;-74
2022/08/09 12:42:24;;;;;;;0.68;0.68;;;;;;;;;;4993551;28;99985;-74
2022/08/09 12:44:51;;;;;;;0.98;0.57;;;;;;;;;;4994515;28;99351;-74
2022/08/09 12:47:20;;;;;;;0.60;0.60;;;;;;;;;;4980020;28;98587;-73
2022/08/09 12:50:16;;;;;;;0.60;0.60;;;;;;;;;;4986096;28;101548;-73
2022/08/09 12:52:38;;;;;;;5.88;1.20;;;;;;;;;;4992664;28;98853;-73
2022/08/09 12:55:27;;;;;;;2.40;0.70;;;;;;;;;;5000661;28;100082;-73
2022/08/09 12:58:14;;;;;;;1.08;0.60;;;;;;;;;;5011934;28;99833;-73
2022/08/09 13:00:52;;;;;;;0.75;0.73;;;;;;;;;;5010216;28;100142;-73
2022/08/09 13:03:26;;;;;;;1.05;0.80;;;;;;;;;;5005403;28;98589;-74
2022/08/09 13:06:22;;;;;;;1.30;0.60;;;;;;;;;;4992135;28;99329;-73
2022/08/09 13:08:59;;;;;;;0.60;0.60;;;;;;;;;;4994574;28;98894;-74
2022/08/09 13:11:30;;;;;;;0.55;0.55;;;;;;;;;;4990750;28;98797;-73
2022/08/09 13:13:57;;;;;;;2.80;0.63;;;;;;;;;;4991418;28;99213;-73
2022/08/09 13:16:46;;;;;;;3.63;0.77;;;;;;;;;;4991172;28;98627;-73
2022/08/09 13:19:25;;;;;;;0.90;0.68;;;;;;;;;;5009738;28;98961;-74
2022/08/09 13:22:22;;;;;;;3.60;1.00;;;;;;;;;;5010743;28;99718;-73
2022/08/09 13:25:08;;;;;;;1.77;1.15;;;;;;;;;;5015276;28;98554;-73
2022/08/09 13:27:39;;;;;;;3.97;0.70;;;;;;;;;;5010512;28;100599;-73
2022/08/09 13:30:21;;;;;;;3.08;0.50;;;;;;;;;;5010768;28;98810;-72
2022/08/09 13:33:08;;;;;;;0.98;0.90;;;;;;;;;;5008614;28;99055;-72
2022/08/09 13:35:42;;;;;;;0.98;0.60;;;;;;;;;;5011749;28;99834;-72
2022/08/09 13:38:28;;;;;;;6.50;0.70;;;;;;;;;;5011865;28;98554;-72
2022/08/09 13:41:19;;;;;;;1.38;0.50;;;;;;;;;;5011249;28;98910;-73
2022/08/09 13:44:05;;;;;;;3.92;0.57;;;;;;;;;;5010767;28;99430;-72
2022/08/09 13:46:33;;;;;;;0.82;0.70;;;;;;;;;;5010551;28;97784;-72
2022/08/09 13:49:19;;;;;;;0.65;0.60;;;;;;;;;;5003087;28;98520;-72
2022/08/09 13:51:46;;;;;;;3.55;0.82;;;;;;;;;;4998710;28;98535;-72
2022/08/09 13:54:26;;;;;;;1.65;0.63;;;;;;;;;;4971686;28;99196;-73
2022/08/09 13:56:55;;;;;;;0.60;0.60;;;;;;;;;;4970830;28;99209;-73
2022/08/09 13:59:22;;;;;;;1.67;0.88;;;;;;;;;;4970925;28;98508;-73
2022/08/09 14:01:50;;;;;;;1.17;0.80;;;;;;;;;;4971322;28;99107;-73
2022/08/09 14:04:27;;;;;;;1.77;0.77;;;;;;;;;;4978418;28;99454;-73
2022/08/09 14:07:01;;;;;;;4.22;0.80;;;;;;;;;;5000861;28;99063;-73
2022/08/09 14:09:29;;;;;;;1.15;0.70;;;;;;;;;;5011423;28;98966;-73
2022/08/09 14:12:00;;;;;;;1.75;0.60;;;;;;;;;;4993511;28;101270;-73
2022/08/09 14:14:32;;;;;;;1.38;0.70;;;;;;;;;;4971954;28;98838;-73
2022/08/09 14:17:02;;;;;;;2.35;1.00;;;;;;;;;;4970562;28;100064;-73
2022/08/09 14:19:30;;;;;;;1.33;0.82;;;;;;;;;;4970767;28;99299;-73
2022/08/09 14:21:59;;;;;;;3.95;1.23;;;;;;;;;;4978269;28;99983;-73
2022/08/09 14:24:25;;;;;;;2.53;0.70;;;;;;;;;;4992993;28;99751;-73
2022/08/09 14:26:59;;;;;;;4.13;0.80;;;;;;;;;;4993055;28;99159;-73
2022/08/09 14:29:26;;;;;;;5.15;0.80;;;;;;;;;;4994950;28;99055;-78
2022/08/09 14:32:12;;;;;;;4.25;0.80;;;;;;;;;;4989022;28;99426;-79
2022/08/09 14:34:45;;;;;;;0.80;0.70;;;;;;;;;;4996877;28;98568;-77
2022/08/09 14:37:11;;;;;;;3.13;0.70;;;;;;;;;;4985412;28;98610;-78
2022/08/09 14:39:39;;;;;;;0.65;0.65;;;;;;;;;;4976616;28;98546;-77
2022/08/09 14:42:17;;;;;;;2.80;0.82;;;;;;;;;;4989748;28;100170;-77
2022/08/09 14:44:57;;;;;;;1.15;0.88;;;;;;;;;;4990563;28;102568;-77
2022/08/09 14:47:25;;;;;;;1.13;0.50;;;;;;;;;;4987546;28;98551;-79
2022/08/09 14:50:12;;;;;;;1.70;0.80;;;;;;;;;;4985378;28;100205;-76
2022/08/09 14:52:42;;;;;;;0.70;0.70;;;;;;;;;;4992877;28;99280;-74
2022/08/09 14:55:15;;;;;;;4.45;0.70;;;;;;;;;;4985338;28;98595;-75
2022/08/09 14:57:46;;;;;;;1.35;0.73;;;;;;;;;;4992646;28;99250;-77
2022/08/09 15:00:14;;;;;;;6.38;1.13;;;;;;;;;;4992364;28;99202;-73
2022/08/09 15:02:40;;;;;;;0.50;0.50;;;;;;;;;;4976730;28;99475;-73
2022/08/09 15:05:07;;;;;;;1.85;0.70;;;;;;;;;;4985099;28;99854;-75
2022/08/09 15:07:33;;;;;;;3.22;0.80;;;;;;;;;;4976808;28;101035;-74
2022/08/09 15:10:01;;;;;;;5.57;0.90;;;;;;;;;;4980603;28;102111;-75
2022/08/09 15:12:36;;;;;;;0.60;0.60;;;;;;;;;;4994810;28;100379;-73
2022/08/09 15:15:03;;;;;;;1.63;0.65;;;;;;;;;;4981539;28;100749;-73
2022/08/09 15:17:33;;;;;;;0.80;0.60;;;;;;;;;;4996907;28;98912;-74
2022/08/09 15:20:08;;;;;;;1.67;1.08;;;;;;;;;;4979075;28;100332;-74
2022/08/09 15:22:40;;;;;;;3.58;0.70;;;;;;;;;;4974637;28;100394;-73